Boulder City, NV

10:21 PM PDT on August 19, 2017 (GMT -0700)
Boulder City

Weather History for KBVU - June, 2013

Change the Weather History Date:

Friday, June 14, 2013

  Actual Average (KLAS) Record (KLAS)
Temperature  
Mean Temperature 85 °F -  
Max Temperature 102 °F 96 °F 115 °F (1940)
Min Temperature 68 °F 69 °F 55 °F (1943)
Cooling Degree Days 20    
Growing Degree Days 35 (Base 50)    
Moisture  
Dew Point 11 °F    
Average Humidity 7    
Maximum Humidity 24    
Minimum Humidity 4    
Precipitation  
Precipitation 0.00 in - - ()
Sea Level Pressure  
Sea Level Pressure 29.82 in    
Wind  
Wind Speed 7 mph (SE)    
Max Wind Speed 26 mph    
Max Gust Speed 33 mph    
Visibility 10 miles    
Events Thunderstorm    
Averages and records for this station are not official NWS values.
T = Trace of Precipitation, MM = Missing Value Source: NWS Daily Summary

Daily Weather History Graph

Daily Weather History Graph

Search for Another Location

Airport or City:

Trip Planner

Search our weather history database for the weather conditions in past years. The results will help you decide how hot, cold, wet, or windy it might be!

Date:

Astronomy

Jun. 14, 2013 Rise Set
Actual Time 5:22 AM PDT 7:57 PM PDT
Civil Twilight 4:52 AM PDT 8:27 PM PDT
Nautical Twilight 4:14 AM PDT 9:05 PM PDT
Astronomical Twilight 3:33 AM PDT 9:46 PM PDT
Moon 10:52 AM PDT (6/14) 11:45 PM PDT (6/14)
Length of Visible Light 15h 35m
Length of Day
14h 35m
Waxing Crescent, 31% of the Moon is Illuminated
Jun 14
Waxing Crescent
Jun 16
First Quarter
Jun 23
Full
Jun 29
Last Quarter
Jul 8
New

Hourly Weather History & Observations

Time (PDT) Temp. Dew Point Humidity Pressure Visibility Wind Dir Wind Speed Gust Speed Precip Events Conditions
12:15 AM 80.6 °F 5.0 °F 6% 29.84 in 10.0 mi SSE 3.5 mph - N/A Thunderstorm Clear
12:35 AM 80.6 °F 1.4 °F 5% 29.83 in 10.0 mi SSW 9.2 mph - N/A   Clear
12:55 AM 80.6 °F 5.0 °F 6% 29.84 in 10.0 mi SSW 3.5 mph - N/A   Clear
1:15 AM 80.6 °F 6.8 °F 6% 29.84 in 10.0 mi WNW 5.8 mph - N/A   Clear
1:35 AM 82.4 °F 8.6 °F 6% 29.83 in 10.0 mi West 8.1 mph - N/A   Clear
1:55 AM 80.6 °F 10.4 °F 7% 29.83 in 10.0 mi WSW 8.1 mph - N/A   Clear
2:15 AM 78.8 °F 10.4 °F 7% 29.83 in 10.0 mi West 6.9 mph - N/A   Clear
2:35 AM 75.2 °F 10.4 °F 8% 29.83 in 10.0 mi West 6.9 mph - N/A   Clear
2:55 AM 77.0 °F 10.4 °F 8% 29.83 in 10.0 mi South 4.6 mph - N/A   Clear
3:15 AM 73.4 °F 17.6 °F 12% 29.83 in 10.0 mi WNW 4.6 mph - N/A   Clear
3:35 AM 75.2 °F 14.0 °F 10% 29.83 in 10.0 mi WSW 3.5 mph - N/A   Clear
3:55 AM 73.4 °F 24.8 °F 16% 29.83 in 10.0 mi Calm Calm - N/A   Clear
4:15 AM 73.4 °F 21.2 °F 14% 29.83 in 10.0 mi Calm Calm - N/A   Clear
4:35 AM 71.6 °F 26.6 °F 19% 29.84 in 10.0 mi ENE 3.5 mph - N/A   Clear
4:55 AM 68.0 °F 30.2 °F 24% 29.85 in 10.0 mi ENE 5.8 mph - N/A   Clear
5:15 AM 69.8 °F 26.6 °F 20% 29.86 in 10.0 mi East 4.6 mph - N/A   Clear
5:35 AM 75.2 °F 19.4 °F 12% 29.86 in 10.0 mi ESE 4.6 mph - N/A   Clear
5:55 AM 75.2 °F 19.4 °F 12% 29.87 in 9.0 mi East 3.5 mph - N/A   Clear
6:15 AM 75.2 °F 19.4 °F 12% 29.88 in 8.0 mi East 3.5 mph - N/A   Clear
6:35 AM 75.2 °F 19.4 °F 12% 29.88 in 10.0 mi ENE 3.5 mph - N/A   Clear
6:55 AM 77.0 °F 15.8 °F 10% 29.89 in 10.0 mi ESE 3.5 mph - N/A   Clear
7:15 AM 80.6 °F 17.6 °F 10% 29.89 in 10.0 mi NE 3.5 mph - N/A   Clear
7:35 AM 82.4 °F 8.6 °F 6% 29.89 in 10.0 mi West 4.6 mph - N/A   Clear
7:55 AM 84.2 °F -0.4 °F 4% 29.88 in 10.0 mi NNW 10.4 mph - N/A   Clear
8:15 AM 86.0 °F 5.0 °F 5% 29.89 in 10.0 mi NNW 10.4 mph - N/A Thunderstorm Clear
8:35 AM 86.0 °F 5.0 °F 5% 29.90 in 10.0 mi NNW 9.2 mph - N/A   Clear
8:55 AM 86.0 °F 1.4 °F 4% 29.90 in 10.0 mi North 10.4 mph - N/A   Clear
9:15 AM 87.8 °F 3.2 °F 4% 29.90 in 10.0 mi NNW 6.9 mph - N/A   Clear
9:35 AM 89.6 °F 5.0 °F 4% 29.89 in 10.0 mi NNW 6.9 mph - N/A   Clear
9:55 AM 89.6 °F 5.0 °F 4% 29.89 in 10.0 mi NNE 5.8 mph - N/A   Clear
10:15 AM 89.6 °F 6.8 °F 4% 29.89 in 10.0 mi North 4.6 mph - N/A Thunderstorm Clear
10:35 AM 89.6 °F 6.8 °F 4% 29.89 in 10.0 mi ESE 3.5 mph - N/A   Clear
10:55 AM 91.4 °F 5.0 °F 4% 29.89 in 9.0 mi ESE 5.8 mph - N/A   Clear
11:15 AM 89.6 °F 5.0 °F 4% 29.88 in 10.0 mi Calm Calm - N/A   Clear
11:35 AM 91.4 °F 5.0 °F 4% 29.88 in 10.0 mi NNW 4.6 mph - N/A Thunderstorm Clear
11:55 AM 91.4 °F 6.8 °F 4% 29.87 in 10.0 mi SSE 3.5 mph - N/A   Clear
12:15 PM 93.2 °F 6.8 °F 4% 29.86 in 10.0 mi East 9.2 mph - N/A   Clear
12:35 PM 95.0 °F 6.8 °F 4% 29.86 in 10.0 mi NNE 5.8 mph - N/A   Clear
12:55 PM 95.0 °F 8.6 °F 4% 29.85 in 10.0 mi ENE 3.5 mph - N/A   Clear
1:15 PM 95.0 °F 14.0 °F 5% 29.84 in 10.0 mi East 6.9 mph - N/A   Clear
1:35 PM 96.8 °F 15.8 °F 5% 29.83 in 10.0 mi ESE 5.8 mph - N/A   Clear
1:55 PM 98.6 °F 17.6 °F 5% 29.82 in 10.0 mi SE 12.7 mph 16.1 mph N/A   Clear
2:15 PM 98.6 °F 17.6 °F 5% 29.81 in 10.0 mi SSE 12.7 mph 17.3 mph N/A   Clear
2:35 PM 100.4 °F 15.8 °F 5% 29.80 in 10.0 mi SE 13.8 mph 23.0 mph N/A   Clear
2:55 PM 100.4 °F 15.8 °F 5% 29.79 in 10.0 mi ESE 15.0 mph 23.0 mph N/A Thunderstorm Clear
3:15 PM 100.4 °F 17.6 °F 5% 29.78 in 10.0 mi SSE 13.8 mph 25.3 mph N/A   Clear
3:35 PM 100.4 °F 19.4 °F 5% 29.77 in 10.0 mi ESE 16.1 mph 23.0 mph N/A   Clear
3:55 PM 102.2 °F 17.6 °F 5% 29.76 in 10.0 mi South 19.6 mph 29.9 mph N/A   Clear
4:15 PM 100.4 °F 15.8 °F 5% 29.75 in 10.0 mi SE 20.7 mph 24.2 mph N/A Thunderstorm Clear
4:35 PM 100.4 °F 15.8 °F 5% 29.74 in 10.0 mi SSE 26.5 mph 32.2 mph N/A   Clear
4:55 PM 100.4 °F 15.8 °F 5% 29.73 in 10.0 mi SSE 23.0 mph 33.4 mph N/A   Clear
5:15 PM 100.4 °F 14.0 °F 4% 29.73 in 10.0 mi SSE 23.0 mph 29.9 mph N/A   Clear
5:35 PM 98.6 °F 15.8 °F 5% 29.73 in 10.0 mi SSE 16.1 mph 32.2 mph N/A   Clear
5:55 PM 98.6 °F 14.0 °F 5% 29.72 in 10.0 mi SSE 23.0 mph 32.2 mph N/A   Clear
6:15 PM 98.6 °F 12.2 °F 4% 29.73 in 10.0 mi SSE 20.7 mph - N/A   Clear
6:35 PM 98.6 °F 8.6 °F 4% 29.73 in 10.0 mi SE 21.9 mph 27.6 mph N/A   Clear
6:55 PM 96.8 °F 8.6 °F 4% 29.73 in 10.0 mi SSE 17.3 mph 25.3 mph N/A   Clear
7:15 PM 95.0 °F 8.6 °F 4% 29.73 in 10.0 mi SW 3.5 mph - N/A   Clear
7:35 PM 95.0 °F -2.2 °F 4% 29.74 in 10.0 mi SW 6.9 mph - N/A   Clear
7:55 PM 93.2 °F -2.2 °F 4% 29.74 in 10.0 mi SW 4.6 mph - N/A   Clear
8:15 PM 89.6 °F -0.4 °F 4% 29.74 in 10.0 mi South 3.5 mph - N/A   Clear
8:35 PM 87.8 °F -2.2 °F 4% 29.75 in 10.0 mi South 4.6 mph - N/A   Clear
8:55 PM 86.0 °F -2.2 °F 4% 29.76 in 10.0 mi SSE 4.6 mph - N/A   Clear
9:15 PM 84.2 °F 1.4 °F 4% 29.77 in 10.0 mi Calm Calm - N/A   Clear
9:35 PM 82.4 °F 8.6 °F 6% 29.77 in 10.0 mi Calm Calm - N/A   Clear
9:55 PM 82.4 °F 10.4 °F 7% 29.78 in 10.0 mi North 3.5 mph - N/A   Clear
10:15 PM 80.6 °F 6.8 °F 6% 29.79 in 10.0 mi Calm Calm - N/A   Clear
10:35 PM 73.4 °F 23.0 °F 15% 29.79 in 10.0 mi Calm Calm - N/A   Clear
10:55 PM 75.2 °F 21.2 °F 13% 29.79 in 10.0 mi NNW 3.5 mph - N/A   Clear
11:15 PM 73.4 °F 23.0 °F 15% 29.79 in 10.0 mi NW 4.6 mph - N/A   Clear
11:35 PM 75.2 °F 14.0 °F 10% 29.79 in 10.0 mi NW 5.8 mph - N/A   Clear
11:55 PM 75.2 °F 10.4 °F 8% 29.79 in 10.0 mi WNW 4.6 mph - N/A   Clear